createdAt,value
2019-05-02T00:02:30.001Z,99.90
2019-05-02T00:05:03.092Z,99.90
2019-05-02T00:07:34.849Z,99.90
2019-05-02T00:10:09.371Z,99.90
2019-05-02T00:12:47.786Z,99.90
2019-05-02T00:15:41.765Z,99.90
2019-05-02T00:18:16.017Z,99.90
2019-05-02T00:21:19.328Z,99.90
2019-05-02T00:23:52.645Z,99.90
2019-05-02T00:27:37.745Z,99.90
2019-05-02T00:30:05.689Z,99.90
2019-05-02T00:32:43.826Z,99.90
2019-05-02T00:35:17.274Z,99.90
2019-05-02T00:37:57.386Z,99.90
2019-05-02T00:40:46.460Z,99.90
2019-05-02T00:47:20.404Z,99.90
2019-05-02T01:04:38.592Z,99.90
2019-05-02T01:07:46.730Z,99.90
2019-05-02T01:15:07.848Z,99.90
2019-05-02T01:24:46.641Z,99.90
2019-05-02T01:27:59.616Z,99.90
2019-05-02T01:31:06.341Z,99.90
2019-05-02T01:34:13.104Z,99.90
2019-05-02T01:37:20.996Z,99.90
2019-05-02T01:39:50.244Z,99.90
2019-05-02T01:42:24.336Z,99.90
2019-05-02T01:45:00.037Z,99.90
2019-05-02T01:47:34.173Z,99.90
2019-05-02T01:50:17.247Z,99.90
2019-05-02T01:52:47.627Z,99.90
2019-05-02T01:55:21.173Z,99.90
2019-05-02T01:57:51.166Z,99.90
2019-05-02T02:00:21.182Z,99.90
2019-05-02T02:02:54.237Z,99.90
2019-05-02T02:05:27.667Z,99.90
2019-05-02T02:07:57.518Z,99.90
2019-05-02T02:10:30.775Z,99.90
2019-05-02T02:13:04.753Z,99.90
2019-05-02T02:15:32.139Z,99.90
2019-05-02T02:18:02.055Z,99.90
2019-05-02T02:20:49.062Z,99.90
2019-05-02T02:23:29.302Z,99.90
2019-05-02T02:26:06.737Z,99.90
2019-05-02T02:28:44.885Z,99.90
2019-05-02T02:31:29.793Z,99.90
2019-05-02T02:34:01.652Z,99.90
2019-05-02T02:36:36.563Z,99.90
2019-05-02T02:39:13.817Z,99.90
2019-05-02T02:41:52.362Z,99.90
2019-05-02T02:44:40.044Z,99.90
2019-05-02T02:47:19.122Z,99.90
2019-05-02T02:49:55.903Z,99.90
2019-05-02T02:52:27.170Z,99.90
2019-05-02T02:54:57.393Z,99.90
2019-05-02T02:57:28.543Z,99.90
2019-05-02T03:00:11.510Z,99.90
2019-05-02T03:02:47.525Z,99.90
2019-05-02T03:05:18.622Z,99.90
2019-05-02T03:08:07.270Z,99.90
2019-05-02T03:10:47.241Z,99.90
2019-05-02T03:14:07.487Z,99.90
2019-05-02T03:16:32.968Z,99.90
2019-05-02T03:19:04.519Z,99.90
2019-05-02T03:22:00.997Z,99.90
2019-05-02T03:24:36.517Z,99.90
2019-05-02T03:29:58.448Z,99.90
2019-05-02T03:32:37.949Z,99.90
2019-05-02T03:35:43.340Z,99.90
2019-05-02T03:38:37.316Z,99.90
2019-05-02T03:41:32.493Z,99.90
2019-05-02T03:44:37.561Z,99.90
2019-05-02T03:47:22.528Z,99.90
2019-05-02T03:53:03.729Z,99.90
2019-05-02T03:55:39.993Z,99.90
2019-05-02T03:58:30.362Z,99.90
2019-05-02T04:01:04.887Z,99.90
2019-05-02T04:03:40.763Z,99.90
2019-05-02T04:06:14.089Z,99.90
2019-05-02T04:08:42.715Z,99.90
2019-05-02T04:11:43.788Z,99.90
2019-05-02T04:14:38.063Z,99.90
2019-05-02T04:17:03.483Z,99.90
2019-05-02T04:19:41.794Z,99.90
2019-05-02T04:22:14.782Z,99.90
2019-05-02T04:24:56.754Z,99.90
2019-05-02T04:27:46.841Z,99.90
2019-05-02T04:30:19.690Z,99.90
2019-05-02T04:33:01.033Z,99.90
2019-05-02T04:35:37.503Z,99.90
2019-05-02T04:38:21.393Z,99.90
2019-05-02T04:40:59.159Z,99.90
2019-05-02T04:43:29.202Z,99.90
2019-05-02T04:46:26.982Z,99.90
2019-05-02T04:49:19.946Z,99.90
2019-05-02T04:54:49.019Z,99.90
2019-05-02T04:57:29.809Z,99.90
2019-05-02T05:00:18.439Z,99.90
2019-05-02T05:03:00.217Z,99.90
2019-05-02T05:05:31.556Z,99.90
2019-05-02T05:08:26.483Z,99.90
2019-05-02T05:11:13.971Z,99.90
2019-05-02T05:13:48.036Z,99.90
2019-05-02T05:16:19.962Z,99.90
2019-05-02T05:18:57.848Z,99.90
2019-05-02T05:21:49.489Z,99.90
2019-05-02T05:24:38.530Z,99.90
2019-05-02T05:27:13.249Z,99.90
2019-05-02T05:30:05.495Z,99.90
2019-05-02T05:32:40.963Z,99.90
2019-05-02T05:35:20.399Z,99.90
2019-05-02T05:38:07.726Z,99.90
2019-05-02T05:40:37.700Z,99.90
2019-05-02T05:43:15.892Z,99.90
2019-05-02T05:46:01.332Z,99.90
2019-05-02T05:48:39.123Z,99.90
2019-05-02T05:51:11.780Z,99.90
2019-05-02T05:53:52.392Z,99.90
2019-05-02T05:56:39.657Z,99.90
2019-05-02T05:59:08.177Z,99.90
2019-05-02T06:12:35.601Z,99.90
2019-05-02T06:15:08.897Z,99.90
2019-05-02T06:17:39.361Z,99.90
2019-05-02T06:20:15.317Z,99.90
2019-05-02T06:22:54.982Z,99.90
2019-05-02T06:25:34.623Z,99.90
2019-05-02T06:28:05.405Z,99.90
2019-05-02T06:30:44.790Z,99.90
2019-05-02T06:33:20.080Z,99.90
2019-05-02T06:36:05.763Z,99.90
2019-05-02T06:38:59.640Z,99.90
2019-05-02T06:41:44.608Z,99.90
2019-05-02T06:44:25.438Z,99.90
2019-05-02T06:47:04.228Z,99.90
2019-05-02T06:49:39.030Z,99.90
2019-05-02T06:52:12.018Z,99.90
2019-05-02T06:54:54.123Z,99.90
2019-05-02T06:57:29.051Z,99.90
2019-05-02T07:00:34.994Z,99.90
2019-05-02T07:02:54.348Z,99.90
2019-05-02T07:05:50.990Z,99.90
2019-05-02T07:08:25.653Z,99.90
2019-05-02T07:11:01.234Z,99.90
2019-05-02T07:13:42.016Z,99.90
2019-05-02T07:16:37.666Z,99.90
2019-05-02T07:19:11.231Z,99.90
2019-05-02T07:21:41.166Z,99.90
2019-05-02T07:24:12.271Z,99.90
2019-05-02T07:26:42.458Z,99.90
2019-05-02T07:29:16.948Z,99.90
2019-05-02T07:31:49.927Z,99.90
2019-05-02T07:34:20.236Z,99.90
2019-05-02T07:36:50.169Z,99.90
2019-05-02T07:39:20.326Z,99.90
2019-05-02T07:41:53.620Z,94.50
2019-05-02T07:44:32.762Z,94.00
2019-05-02T07:47:02.454Z,80.20
2019-05-02T07:49:34.214Z,75.50
2019-05-02T07:52:07.386Z,73.10
2019-05-02T07:54:37.271Z,69.40
2019-05-02T07:57:09.804Z,62.90
2019-05-02T07:59:39.542Z,58.60
2019-05-02T08:02:09.499Z,55.20
2019-05-02T08:04:43.561Z,55.20
2019-05-02T08:07:10.966Z,56.90
2019-05-02T08:09:44.065Z,53.90
2019-05-02T08:12:15.288Z,53.90
2019-05-02T08:14:45.040Z,48.70
2019-05-02T08:17:17.231Z,49.60
2019-05-02T08:19:46.306Z,47.30
2019-05-02T08:22:16.088Z,48.60
2019-05-02T08:24:45.961Z,43.90
2019-05-02T08:27:46.769Z,45.30
2019-05-02T08:30:22.994Z,47.00
2019-05-02T08:32:53.012Z,43.80
2019-05-02T08:35:22.759Z,42.40
2019-05-02T08:37:52.508Z,43.40
2019-05-02T08:40:22.484Z,43.00
2019-05-02T08:42:52.099Z,40.70
2019-05-02T08:45:21.783Z,42.70
2019-05-02T08:47:51.539Z,40.80
2019-05-02T08:50:21.528Z,38.00
2019-05-02T08:52:51.414Z,37.00
2019-05-02T08:55:21.191Z,38.20
2019-05-02T08:57:54.041Z,40.20
2019-05-02T09:00:26.449Z,39.50
2019-05-02T09:02:57.156Z,39.00
2019-05-02T09:05:27.467Z,38.20
2019-05-02T09:07:57.242Z,39.20
2019-05-02T09:10:26.967Z,40.40
2019-05-02T09:12:56.637Z,42.80
2019-05-02T09:15:26.573Z,39.90
2019-05-02T09:17:56.593Z,42.70
2019-05-02T09:20:26.590Z,39.20
2019-05-02T09:22:56.222Z,44.70
2019-05-02T09:25:26.040Z,44.20
2019-05-02T09:27:55.676Z,42.40
2019-05-02T09:30:25.976Z,39.50
2019-05-02T09:32:57.312Z,40.50
2019-05-02T09:35:27.233Z,42.00
2019-05-02T09:37:56.892Z,40.00
2019-05-02T09:40:26.583Z,39.70
2019-05-02T09:42:58.566Z,43.70
2019-05-02T09:45:33.438Z,41.40
2019-05-02T09:48:07.571Z,39.50
2019-05-02T09:50:34.803Z,41.80
2019-05-02T09:53:05.077Z,39.90
2019-05-02T09:55:35.085Z,40.40
2019-05-02T09:58:04.483Z,40.30
2019-05-02T10:00:49.900Z,42.00
2019-05-02T10:03:19.220Z,39.50
2019-05-02T10:05:48.409Z,38.90
2019-05-02T10:08:17.564Z,40.30
2019-05-02T10:10:46.831Z,40.00
2019-05-02T10:13:16.147Z,39.80
2019-05-02T10:15:45.410Z,41.80
2019-05-02T10:18:14.878Z,40.60
2019-05-02T10:20:55.322Z,40.80
2019-05-02T10:23:26.056Z,41.40
2019-05-02T10:25:55.729Z,40.10
2019-05-02T10:28:25.707Z,40.80
2019-05-02T10:30:56.845Z,41.80
2019-05-02T10:33:33.718Z,41.90
2019-05-02T10:36:19.425Z,42.40
2019-05-02T10:38:42.951Z,42.20
2019-05-02T10:41:12.570Z,40.30
2019-05-02T10:43:46.879Z,44.50
2019-05-02T10:46:41.914Z,42.30
2019-05-02T10:49:26.322Z,42.60
2019-05-02T10:51:56.425Z,39.50
2019-05-02T10:54:28.017Z,45.50
2019-05-02T10:56:57.513Z,41.30
2019-05-02T10:59:26.915Z,47.20
2019-05-02T11:02:15.554Z,41.60
2019-05-02T11:04:49.192Z,42.80
2019-05-02T11:07:22.784Z,42.30
2019-05-02T11:09:52.417Z,42.70
2019-05-02T11:12:47.271Z,38.60
2019-05-02T11:15:34.977Z,42.50
2019-05-02T11:18:05.083Z,41.40
2019-05-02T11:20:35.275Z,45.30
2019-05-02T11:23:05.512Z,41.40
2019-05-02T11:25:35.193Z,43.00
2019-05-02T11:28:07.134Z,45.00
2019-05-02T11:30:37.641Z,42.60
2019-05-02T11:33:07.181Z,43.50
2019-05-02T11:35:41.749Z,47.00
2019-05-02T11:38:08.972Z,44.50
2019-05-02T11:40:38.941Z,43.50
2019-05-02T11:43:08.860Z,41.50
2019-05-02T11:45:38.635Z,42.60
2019-05-02T11:48:11.278Z,45.20
2019-05-02T11:50:39.859Z,44.70
2019-05-02T11:53:23.271Z,41.10
2019-05-02T11:55:41.994Z,42.60
2019-05-02T11:58:12.609Z,45.20
2019-05-02T12:00:45.367Z,42.00
2019-05-02T12:03:17.936Z,40.20
2019-05-02T12:05:47.088Z,46.60
2019-05-02T12:08:16.270Z,43.60
2019-05-02T12:10:45.576Z,39.40
2019-05-02T12:13:16.192Z,40.70
2019-05-02T12:15:45.589Z,46.60
2019-05-02T12:18:14.727Z,39.50
2019-05-02T12:20:43.947Z,43.10
2019-05-02T12:23:13.199Z,40.20
2019-05-02T12:25:42.507Z,43.10
2019-05-02T12:28:12.141Z,41.60
2019-05-02T12:30:41.908Z,43.20
2019-05-02T12:33:12.390Z,41.80
2019-05-02T12:35:43.232Z,40.80
2019-05-02T12:38:12.700Z,42.30
2019-05-02T12:40:43.581Z,40.60
2019-05-02T12:43:17.059Z,41.20
2019-05-02T12:45:46.944Z,36.60
2019-05-02T12:48:16.746Z,40.60
2019-05-02T12:50:46.319Z,40.70
2019-05-02T12:53:16.331Z,38.40
2019-05-02T12:55:46.346Z,39.40
2019-05-02T12:58:16.198Z,38.80
2019-05-02T13:00:46.017Z,38.60
2019-05-02T13:03:36.549Z,38.60
2019-05-02T13:06:06.484Z,39.60
2019-05-02T13:08:48.805Z,40.40
2019-05-02T13:11:36.735Z,37.50
2019-05-02T13:14:04.780Z,41.40
2019-05-02T13:16:34.519Z,40.10
2019-05-02T13:19:06.155Z,40.40
2019-05-02T13:21:44.955Z,39.50
2019-05-02T13:24:33.071Z,42.50
2019-05-02T13:27:05.643Z,38.20
2019-05-02T13:29:35.521Z,39.60
2019-05-02T13:32:21.641Z,42.30
2019-05-02T13:35:09.883Z,40.70
2019-05-02T13:37:39.634Z,37.70
2019-05-02T13:40:17.077Z,37.30
2019-05-02T13:42:48.204Z,40.80
2019-05-02T13:45:42.323Z,36.70
2019-05-02T13:48:21.709Z,40.60
2019-05-02T13:50:53.213Z,39.00
2019-05-02T13:53:22.908Z,38.70
2019-05-02T13:56:14.393Z,39.10
2019-05-02T13:58:45.442Z,38.60
2019-05-02T14:01:15.193Z,40.00
2019-05-02T14:03:46.197Z,42.10
2019-05-02T14:06:16.148Z,39.30
2019-05-02T14:09:16.972Z,40.10
2019-05-02T14:12:13.051Z,39.70
2019-05-02T14:14:42.687Z,39.90
2019-05-02T14:17:12.504Z,40.40
2019-05-02T14:19:42.524Z,42.30
2019-05-02T14:22:12.920Z,43.20
2019-05-02T14:24:44.292Z,41.10
2019-05-02T14:27:17.186Z,42.70
2019-05-02T14:29:45.759Z,44.60
2019-05-02T14:32:23.447Z,44.30
2019-05-02T14:35:03.202Z,43.70
2019-05-02T14:37:32.781Z,44.30
2019-05-02T14:40:17.647Z,42.40
2019-05-02T14:42:52.755Z,43.50
2019-05-02T14:45:30.717Z,42.50
2019-05-02T14:48:00.343Z,42.20
2019-05-02T14:50:27.876Z,45.00
2019-05-02T14:52:59.269Z,44.50
2019-05-02T14:55:32.450Z,45.60
2019-05-02T14:58:05.723Z,44.00
2019-05-02T15:00:39.600Z,45.00
2019-05-02T15:03:07.227Z,45.50
2019-05-02T15:05:45.851Z,43.40
2019-05-02T15:08:15.511Z,45.00
2019-05-02T15:10:52.581Z,43.90
2019-05-02T15:13:16.263Z,39.90
2019-05-02T15:15:45.871Z,39.10
2019-05-02T15:18:17.507Z,40.20
2019-05-02T15:20:49.393Z,42.00
2019-05-02T15:23:19.852Z,39.30
2019-05-02T15:25:52.478Z,40.80
2019-05-02T15:28:22.874Z,39.70
2019-05-02T15:31:08.435Z,39.40
2019-05-02T15:33:48.143Z,38.70
2019-05-02T15:36:17.955Z,38.60
2019-05-02T15:38:48.075Z,39.70
2019-05-02T15:41:18.200Z,39.60
2019-05-02T15:43:49.300Z,40.30
2019-05-02T15:46:23.641Z,40.00
2019-05-02T15:48:51.987Z,42.30
2019-05-02T15:51:23.072Z,41.50
2019-05-02T15:54:07.653Z,40.70
2019-05-02T15:59:37.550Z,41.90
2019-05-02T16:02:07.976Z,42.60
2019-05-02T16:04:39.184Z,42.60
2019-05-02T16:07:09.056Z,42.10
2019-05-02T16:09:39.140Z,42.50
2019-05-02T16:12:08.985Z,43.50
2019-05-02T16:14:38.672Z,41.80
2019-05-02T16:17:08.508Z,42.30
2019-05-02T16:19:43.543Z,43.50
2019-05-02T16:22:22.459Z,43.70
2019-05-02T16:24:53.331Z,45.30
2019-05-02T16:27:44.120Z,55.40
2019-05-02T16:30:14.443Z,57.30
2019-05-02T16:32:48.210Z,61.00
2019-05-02T16:35:22.293Z,59.90
2019-05-02T16:37:58.513Z,61.20
2019-05-02T16:40:34.658Z,63.40
2019-05-02T16:43:12.405Z,65.50
2019-05-02T16:45:43.932Z,64.90
2019-05-02T16:48:13.737Z,71.10
2019-05-02T16:50:45.048Z,68.90
2019-05-02T16:53:17.340Z,73.50
2019-05-02T16:55:53.715Z,74.70
2019-05-02T16:58:24.147Z,80.30
2019-05-02T17:00:54.508Z,83.50
2019-05-02T17:03:27.294Z,90.40
2019-05-02T17:05:57.274Z,91.20
2019-05-02T17:08:49.554Z,88.40
2019-05-02T17:11:22.860Z,80.50
2019-05-02T17:13:52.778Z,87.10
2019-05-02T17:16:22.325Z,91.00
2019-05-02T17:18:56.340Z,89.60
2019-05-02T17:21:26.846Z,95.20
2019-05-02T17:23:56.279Z,98.10
2019-05-02T17:26:26.219Z,99.90
2019-05-02T17:28:59.271Z,99.90
2019-05-02T17:31:28.981Z,99.90
2019-05-02T17:33:58.971Z,99.90
2019-05-02T17:36:30.631Z,99.90
2019-05-02T17:39:06.294Z,99.90
2019-05-02T17:41:37.116Z,99.90
2019-05-02T17:44:04.549Z,99.90
2019-05-02T17:46:36.340Z,99.90
2019-05-02T17:49:12.313Z,99.90
2019-05-02T17:52:05.619Z,99.90
2019-05-02T17:54:32.620Z,99.90
2019-05-02T17:57:15.028Z,99.90
2019-05-02T17:59:55.060Z,99.90
2019-05-02T18:02:25.165Z,99.90
2019-05-02T18:04:57.676Z,99.90
2019-05-02T18:07:34.227Z,99.90
2019-05-02T18:10:14.362Z,99.90
2019-05-02T18:12:47.745Z,99.90
2019-05-02T18:15:17.199Z,99.90
2019-05-02T18:17:59.762Z,99.90
2019-05-02T18:20:28.394Z,99.90
2019-05-02T18:22:58.412Z,99.90
2019-05-02T18:25:31.621Z,99.90
2019-05-02T18:28:02.401Z,99.90
2019-05-02T18:30:32.097Z,99.90
2019-05-02T18:33:03.605Z,99.90
2019-05-02T18:35:37.293Z,99.90
2019-05-02T18:38:05.313Z,99.90
2019-05-02T18:40:36.211Z,99.90
2019-05-02T18:43:05.756Z,99.90
2019-05-02T18:45:35.243Z,99.90
2019-05-02T18:48:14.966Z,99.90
2019-05-02T18:50:49.998Z,99.90
2019-05-02T18:53:23.488Z,99.90
2019-05-02T18:55:51.864Z,99.90
2019-05-02T18:58:22.550Z,99.90
2019-05-02T19:00:52.387Z,99.90
2019-05-02T19:03:22.980Z,99.90
2019-05-02T19:05:57.174Z,99.90
2019-05-02T19:08:31.326Z,99.90
2019-05-02T19:11:08.486Z,99.90
2019-05-02T19:13:29.786Z,99.90
2019-05-02T19:15:59.131Z,99.90
2019-05-02T19:18:32.418Z,99.90
2019-05-02T19:21:03.117Z,99.90
2019-05-02T19:23:33.070Z,99.90
2019-05-02T19:26:10.143Z,99.90
2019-05-02T19:28:53.438Z,99.90
2019-05-02T19:31:24.654Z,99.90
2019-05-02T19:33:54.699Z,99.90
2019-05-02T19:36:27.603Z,99.90
2019-05-02T19:38:56.921Z,99.90
2019-05-02T19:41:26.595Z,99.90
2019-05-02T19:43:56.424Z,99.90
2019-05-02T19:46:34.553Z,99.90
2019-05-02T19:49:06.865Z,99.90
2019-05-02T19:51:34.796Z,99.90
2019-05-02T19:54:07.014Z,99.90
2019-05-02T19:56:45.442Z,99.90
2019-05-02T19:59:11.895Z,99.90
2019-05-02T20:02:06.584Z,99.90
2019-05-02T20:04:37.696Z,99.90
2019-05-02T20:07:08.342Z,99.90
2019-05-02T20:09:42.985Z,99.90
2019-05-02T20:12:12.980Z,99.90
2019-05-02T20:14:46.065Z,99.90
2019-05-02T20:17:14.999Z,99.90
2019-05-02T20:19:44.407Z,99.90
2019-05-02T20:22:16.320Z,99.90
2019-05-02T20:25:01.244Z,99.90
2019-05-02T20:27:30.384Z,99.90
2019-05-02T20:30:00.151Z,99.90
2019-05-02T20:32:32.130Z,99.90
2019-05-02T20:35:01.221Z,99.90
2019-05-02T20:37:32.483Z,99.90
2019-05-02T20:40:02.834Z,99.90
2019-05-02T20:42:32.853Z,99.90
2019-05-02T20:45:08.959Z,99.90
2019-05-02T20:47:39.309Z,99.90
2019-05-02T20:50:15.237Z,99.90
2019-05-02T20:52:45.141Z,99.90
2019-05-02T20:55:14.469Z,99.90
2019-05-02T20:57:44.596Z,99.90
2019-05-02T21:00:23.468Z,99.90
2019-05-02T21:02:53.352Z,99.90
2019-05-02T21:05:25.070Z,99.90
2019-05-02T21:08:12.290Z,99.90
2019-05-02T21:10:43.573Z,99.90
2019-05-02T21:13:16.337Z,99.90
2019-05-02T21:15:46.012Z,99.90
2019-05-02T21:18:16.130Z,99.90
2019-05-02T21:20:46.003Z,99.90
2019-05-02T21:23:15.659Z,99.90
2019-05-02T21:25:45.279Z,99.90
2019-05-02T21:28:14.977Z,99.90
2019-05-02T21:30:44.541Z,99.90
2019-05-02T21:33:33.389Z,99.90
2019-05-02T21:36:02.806Z,99.90
2019-05-02T21:38:32.215Z,99.90
2019-05-02T21:41:01.461Z,99.90
2019-05-02T21:43:31.669Z,99.90
2019-05-02T21:46:02.354Z,99.90
2019-05-02T21:48:32.661Z,99.90
2019-05-02T21:51:12.123Z,99.90
2019-05-02T21:54:02.969Z,99.90
2019-05-02T21:56:57.519Z,99.90
2019-05-02T21:59:29.916Z,99.90
2019-05-02T22:02:02.256Z,99.90
2019-05-02T22:04:35.515Z,99.90
2019-05-02T22:07:05.882Z,99.90
2019-05-02T22:09:35.709Z,99.90
2019-05-02T22:12:05.404Z,99.90
2019-05-02T22:14:34.744Z,99.90
2019-05-02T22:17:04.620Z,99.90
2019-05-02T22:19:34.329Z,99.90
2019-05-02T22:22:04.396Z,99.90
2019-05-02T22:24:36.333Z,99.90
2019-05-02T22:27:06.398Z,99.90
2019-05-02T22:29:36.447Z,99.90
2019-05-02T22:32:06.156Z,99.90
2019-05-02T22:34:35.964Z,99.90
2019-05-02T22:37:07.199Z,99.90
2019-05-02T22:40:04.983Z,99.90
2019-05-02T22:42:34.932Z,99.90
2019-05-02T22:45:05.223Z,99.90
2019-05-02T22:47:34.879Z,99.90
2019-05-02T22:50:08.217Z,99.90
2019-05-02T22:52:38.344Z,99.90
2019-05-02T22:55:08.845Z,99.90
2019-05-02T22:57:41.442Z,99.90
2019-05-02T23:00:10.853Z,99.90
2019-05-02T23:02:43.673Z,99.90
2019-05-02T23:05:16.519Z,99.90
2019-05-02T23:07:45.780Z,99.90
2019-05-02T23:10:15.244Z,99.90
2019-05-02T23:12:44.829Z,99.90
2019-05-02T23:15:14.219Z,99.90
2019-05-02T23:17:43.517Z,99.90
2019-05-02T23:20:12.915Z,99.90
2019-05-02T23:22:44.331Z,99.90
2019-05-02T23:25:32.205Z,99.90
2019-05-02T23:28:07.051Z,99.90
2019-05-02T23:30:36.874Z,99.90
2019-05-02T23:33:06.982Z,99.90
2019-05-02T23:35:36.789Z,99.90
2019-05-02T23:38:06.782Z,99.90
2019-05-02T23:40:36.591Z,99.90
2019-05-02T23:43:06.846Z,99.90
2019-05-02T23:45:36.547Z,99.90
2019-05-02T23:48:06.368Z,99.90
2019-05-02T23:50:36.461Z,99.90
2019-05-02T23:53:06.454Z,99.90
2019-05-02T23:55:36.624Z,99.90
2019-05-02T23:58:06.847Z,99.90
